Time;durP1;ratioP1;P1;durP2;ratioP2;P2;SDS_P1;SDS_P2;PMS_P1;PMS_P2;Temp;Humidity;BMP_temperature;BMP_pressure;BME280_temperature;BME280_humidity;BME280_pressure;Samples;Min_cycle;Max_cycle;Signal;HPM_P1;HPM_P2
2021/06/26 00:00:08;;;;;;;25.15;12.55;;;;;;;14.85;100.00;102045.59;4952240;28;20070;-70
2021/06/26 00:02:36;;;;;;;22.50;12.35;;;;;;;14.83;100.00;102042.97;4957989;28;20062;-70
2021/06/26 00:05:05;;;;;;;22.05;11.20;;;;;;;14.79;100.00;102045.78;4955471;28;20206;-69
2021/06/26 00:07:33;;;;;;;23.83;11.93;;;;;;;14.74;100.00;102045.91;4948810;28;20074;-70
2021/06/26 00:10:00;;;;;;;24.05;12.30;;;;;;;14.75;100.00;102031.56;4956709;28;20067;-70
2021/06/26 00:12:29;;;;;;;23.42;12.30;;;;;;;14.69;100.00;102039.81;4956209;28;20130;-70
2021/06/26 00:14:57;;;;;;;28.45;14.40;;;;;;;14.68;100.00;102041.63;4957828;28;20071;-70
2021/06/26 00:17:25;;;;;;;23.20;11.82;;;;;;;14.65;100.00;102040.84;4954446;28;20070;-70
2021/06/26 00:19:54;;;;;;;23.88;13.25;;;;;;;14.65;100.00;102041.72;4957922;28;20066;-69
2021/06/26 00:22:22;;;;;;;26.70;13.48;;;;;;;14.62;100.00;102055.22;4951537;28;20098;-69
2021/06/26 00:24:49;;;;;;;24.08;12.10;;;;;;;14.61;100.00;102049.91;4958143;28;20731;-70
2021/06/26 00:27:17;;;;;;;25.65;12.40;;;;;;;14.58;100.00;102050.84;4952572;28;20055;-69
2021/06/26 00:29:46;;;;;;;26.92;12.77;;;;;;;14.54;100.00;102058.13;4958726;28;20075;-69
2021/06/26 00:32:14;;;;;;;31.58;14.30;;;;;;;14.54;100.00;102062.59;4957697;28;20042;-69
2021/06/26 00:34:42;;;;;;;28.20;13.80;;;;;;;14.54;100.00;102062.59;4958421;28;20066;-69
2021/06/26 00:37:09;;;;;;;31.40;14.57;;;;;;;14.55;100.00;102059.84;4951833;28;20684;-69
2021/06/26 00:39:37;;;;;;;32.05;14.73;;;;;;;14.57;100.00;102057.13;4953230;28;20825;-69
2021/06/26 00:42:05;;;;;;;36.13;16.85;;;;;;;14.58;100.00;102045.47;4955926;28;20513;-69
2021/06/26 00:44:33;;;;;;;35.85;16.80;;;;;;;14.59;100.00;102055.31;4953906;28;20075;-70
2021/06/26 00:47:07;;;;;;;29.45;13.77;;;;;;;14.58;100.00;102050.84;4954691;28;20125;-70
2021/06/26 00:49:36;;;;;;;29.00;13.43;;;;;;;14.60;100.00;102048.16;4957895;28;20047;-69
2021/06/26 00:52:04;;;;;;;37.30;14.85;;;;;;;14.63;100.00;102042.69;4954402;28;20141;-69
2021/06/26 00:54:32;;;;;;;42.45;14.85;;;;;;;14.62;100.00;102046.28;4956878;28;20058;-70
2021/06/26 00:57:01;;;;;;;38.33;15.50;;;;;;;14.62;100.00;102046.28;4954267;28;20144;-70
2021/06/26 00:59:30;;;;;;;37.28;16.00;;;;;;;14.59;100.00;102047.25;4951092;28;20505;-69
2021/06/26 01:01:57;;;;;;;41.70;17.45;;;;;;;14.63;100.00;102048.06;4955464;28;20165;-71
2021/06/26 01:04:26;;;;;;;35.92;15.95;;;;;;;14.63;100.00;102046.25;4952867;28;20078;-69
2021/06/26 01:06:55;;;;;;;39.50;15.55;;;;;;;14.65;100.00;102048.91;4956311;28;20137;-68
2021/06/26 01:09:22;;;;;;;41.90;17.02;;;;;;;14.62;100.00;102047.16;4951426;28;20113;-69
2021/06/26 01:11:57;;;;;;;48.22;16.98;;;;;;;14.63;100.00;102054.31;4954681;28;20149;-68
2021/06/26 01:14:24;;;;;;;46.15;17.90;;;;;;;14.63;100.00;102065.06;4952458;28;20154;-69
2021/06/26 01:16:52;;;;;;;45.92;15.93;;;;;;;14.66;100.00;102059.59;4956635;28;20075;-68
2021/06/26 01:19:20;;;;;;;40.08;15.55;;;;;;;14.68;100.00;102062.25;4951620;28;20458;-69
2021/06/26 01:21:54;;;;;;;44.53;19.45;;;;;;;14.68;100.00;102055.06;4952429;28;20070;-69
2021/06/26 01:24:23;;;;;;;44.67;17.58;;;;;;;14.72;100.00;102051.34;4949916;28;20055;-69
2021/06/26 01:26:57;;;;;;;41.42;16.33;;;;;;;14.74;100.00;102051.28;4956492;28;20313;-69
2021/06/26 01:29:25;;;;;;;38.72;17.17;;;;;;;14.74;100.00;102053.97;4957618;28;20066;-68
2021/06/26 01:31:53;;;;;;;45.03;16.83;;;;;;;14.74;100.00;102057.56;4961196;28;20081;-71
2021/06/26 01:34:21;;;;;;;40.13;16.45;;;;;;;14.72;100.00;102058.53;4954827;28;20062;-70
2021/06/26 01:36:48;;;;;;;36.70;15.85;;;;;;;14.74;100.00;102072.78;4954327;28;20059;-69
2021/06/26 01:39:16;;;;;;;48.47;18.65;;;;;;;14.72;100.00;102070.13;4953741;28;20071;-69
2021/06/26 01:41:45;;;;;;;45.30;18.52;;;;;;;14.75;100.00;102069.19;4955821;28;20132;-70
2021/06/26 01:44:14;;;;;;;35.25;15.35;;;;;;;14.75;100.00;102061.13;4951711;28;20570;-69
2021/06/26 01:46:42;;;;;;;47.92;17.85;;;;;;;14.78;100.00;102062.81;4955096;28;20063;-69
2021/06/26 01:49:13;;;;;;;41.78;15.50;;;;;;;14.77;100.00;102066.44;4955992;28;20054;-69
2021/06/26 01:51:41;;;;;;;43.05;17.40;;;;;;;14.77;100.00;102067.31;4951106;28;20090;-69
2021/06/26 01:54:10;;;;;;;46.75;16.77;;;;;;;14.78;100.00;102076.25;4955074;28;20161;-69
2021/06/26 01:56:38;;;;;;;35.85;15.65;;;;;;;14.78;100.00;102074.47;4951541;28;20627;-69
2021/06/26 01:59:07;;;;;;;41.17;17.15;;;;;;;14.81;100.00;102071.66;4953658;28;20054;-70
2021/06/26 02:01:37;;;;;;;47.53;17.77;;;;;;;14.82;100.00;102075.25;4949727;28;20042;-69
2021/06/26 02:04:05;;;;;;;40.13;15.82;;;;;;;14.83;100.00;102077.00;4956412;28;20073;-69
2021/06/26 02:06:33;;;;;;;42.78;16.30;;;;;;;14.85;100.00;102080.53;4952225;28;20187;-69
2021/06/26 02:09:01;;;;;;;45.35;17.77;;;;;;;14.80;100.00;102088.72;4954923;28;20087;-69
2021/06/26 02:11:28;;;;;;;38.78;16.02;;;;;;;14.81;100.00;102082.41;4953735;28;20165;-69
2021/06/26 02:13:56;;;;;;;49.67;17.92;;;;;;;14.82;100.00;102083.31;4956518;28;20134;-69
2021/06/26 02:16:25;;;;;;;37.17;16.90;;;;;;;14.82;100.00;102086.00;4947638;28;20145;-68
2021/06/26 02:18:53;;;;;;;37.10;15.73;;;;;;;14.82;100.00;102088.69;4950686;28;20109;-69
2021/06/26 02:21:21;;;;;;;50.83;17.52;;;;;;;14.82;100.00;102086.88;4956037;28;20058;-68
2021/06/26 02:23:49;;;;;;;42.25;18.25;;;;;;;14.81;100.00;102076.16;4950913;28;20190;-69
2021/06/26 02:26:17;;;;;;;36.72;15.93;;;;;;;14.81;100.00;102074.34;4950847;28;20063;-68
2021/06/26 02:28:44;;;;;;;36.08;15.45;;;;;;;14.83;100.00;102077.91;4951758;28;20098;-68
2021/06/26 02:31:12;;;;;;;41.40;17.55;;;;;;;14.82;100.00;102081.50;4951690;28;20067;-71
2021/06/26 02:33:42;;;;;;;47.65;18.80;;;;;;;14.86;100.00;102079.59;4951803;28;20552;-68
2021/06/26 02:36:09;;;;;;;40.63;17.00;;;;;;;14.86;100.00;102082.28;4954641;28;20638;-68
2021/06/26 02:38:37;;;;;;;37.45;17.25;;;;;;;14.84;100.00;102079.63;4949218;28;20177;-69
2021/06/26 02:41:06;;;;;;;37.38;16.80;;;;;;;14.84;100.00;102076.09;4954928;28;20117;-68
2021/06/26 02:43:34;;;;;;;43.88;18.70;;;;;;;14.87;100.00;102073.31;4949683;28;20109;-68
2021/06/26 02:46:01;;;;;;;39.72;16.83;;;;;;;14.87;100.00;102076.00;4955600;28;20097;-69
2021/06/26 02:48:29;;;;;;;40.17;16.23;;;;;;;14.88;100.00;102078.63;4950220;28;20067;-68
2021/06/26 02:50:58;;;;;;;40.08;17.58;;;;;;;14.89;100.00;102071.44;4952099;28;20713;-68
2021/06/26 02:53:26;;;;;;;36.65;17.08;;;;;;;14.88;100.00;102077.72;4948089;28;20138;-68
2021/06/26 02:55:56;;;;;;;44.20;18.08;;;;;;;14.90;100.00;102073.22;4953966;28;20645;-68
2021/06/26 02:58:24;;;;;;;41.15;18.00;;;;;;;14.88;100.00;102081.31;4951557;28;20063;-68
2021/06/26 03:00:52;;;;;;;42.33;18.85;;;;;;;14.89;100.00;102075.00;4954301;28;20121;-70
2021/06/26 03:03:19;;;;;;;38.33;17.67;;;;;;;14.89;100.00;102074.13;4951479;28;20242;-68
2021/06/26 03:05:47;;;;;;;46.55;20.17;;;;;;;14.89;100.00;102080.38;4956725;28;20145;-68
2021/06/26 03:08:16;;;;;;;47.00;19.65;;;;;;;14.89;100.00;102075.00;4949722;28;20086;-68
2021/06/26 03:10:44;;;;;;;45.88;19.38;;;;;;;14.90;100.00;102084.84;4956828;28;20094;-69
2021/06/26 03:13:12;;;;;;;39.85;19.05;;;;;;;14.90;100.00;102086.66;4957907;28;20063;-68
2021/06/26 03:15:40;;;;;;;43.00;19.13;;;;;;;14.89;100.00;102085.75;4957355;28;20075;-68
2021/06/26 03:18:08;;;;;;;44.00;19.55;;;;;;;14.92;100.00;102087.47;4957996;28;20117;-68
2021/06/26 03:20:36;;;;;;;42.60;19.15;;;;;;;14.91;100.00;102083.03;4952544;28;21097;-68
2021/06/26 03:23:04;;;;;;;42.63;21.45;;;;;;;14.90;100.00;102081.28;4949971;28;20075;-68
2021/06/26 03:25:33;;;;;;;47.10;18.92;;;;;;;14.92;100.00;102077.59;4951248;28;21025;-68
2021/06/26 03:28:01;;;;;;;41.53;19.50;;;;;;;14.93;100.00;102079.38;4953141;28;20132;-68
2021/06/26 03:30:29;;;;;;;48.53;20.92;;;;;;;14.92;100.00;102085.66;4949240;28;20794;-68
2021/06/26 03:32:57;;;;;;;37.83;18.92;;;;;;;14.93;100.00;102075.78;4956127;28;20450;-69
2021/06/26 03:35:26;;;;;;;48.38;19.92;;;;;;;14.94;100.00;102078.44;4950620;28;20235;-68
2021/06/26 03:37:54;;;;;;;42.70;20.90;;;;;;;14.94;100.00;102082.94;4954686;28;20074;-69
2021/06/26 03:40:22;;;;;;;39.35;18.85;;;;;;;14.93;100.00;102078.47;4947659;28;20090;-68
2021/06/26 03:42:51;;;;;;;46.72;19.55;;;;;;;14.95;100.00;102084.72;4953447;28;20071;-68
2021/06/26 03:45:18;;;;;;;47.08;20.80;;;;;;;14.96;100.00;102083.75;4953535;28;20066;-68
2021/06/26 03:47:46;;;;;;;41.40;18.88;;;;;;;14.96;100.00;102089.13;4957220;28;20149;-68
2021/06/26 03:50:14;;;;;;;41.33;18.85;;;;;;;14.98;100.00;102083.72;4956087;28;20118;-68
2021/06/26 03:52:42;;;;;;;43.58;20.05;;;;;;;15.00;100.00;102082.75;4956156;28;20217;-69
2021/06/26 03:55:10;;;;;;;43.58;20.70;;;;;;;15.00;100.00;102085.44;4953674;28;20067;-68
2021/06/26 03:57:37;;;;;;;47.25;21.60;;;;;;;14.98;100.00;102086.41;4957776;28;20145;-68
2021/06/26 04:00:08;;;;;;;51.95;23.15;;;;;;;14.98;100.00;102086.41;4954206;28;20947;-68
2021/06/26 04:02:36;;;;;;;49.30;22.35;;;;;;;15.01;100.00;102089.00;4956721;28;20054;-69
2021/06/26 04:05:04;;;;;;;47.72;20.63;;;;;;;15.02;100.00;102091.66;4956772;28;20090;-68
2021/06/26 04:07:32;;;;;;;48.58;21.38;;;;;;;15.02;100.00;102093.47;4955504;28;20173;-68
2021/06/26 04:10:00;;;;;;;46.75;21.85;;;;;;;15.04;100.00;102091.59;4959084;28;20075;-69
2021/06/26 04:12:27;;;;;;;49.75;22.25;;;;;;;15.01;100.00;102087.19;4953316;28;20059;-69
2021/06/26 04:14:55;;;;;;;47.58;22.00;;;;;;;15.02;100.00;102096.16;4956981;28;20626;-69
2021/06/26 04:17:24;;;;;;;43.38;19.83;;;;;;;15.02;100.00;102093.47;4951388;28;20128;-69
2021/06/26 04:19:52;;;;;;;48.08;21.73;;;;;;;15.06;100.00;102101.38;4954065;28;20062;-69
2021/06/26 04:22:20;;;;;;;51.72;23.60;;;;;;;15.01;100.00;102092.56;4952002;28;20105;-69
2021/06/26 04:24:47;;;;;;;51.75;23.33;;;;;;;15.01;100.00;102100.63;4954889;28;20071;-69
2021/06/26 04:27:15;;;;;;;52.75;25.25;;;;;;;15.00;100.00;102104.25;4950866;28;20094;-69
2021/06/26 04:29:43;;;;;;;54.75;25.40;;;;;;;15.02;100.00;102101.53;4956547;28;20134;-69
2021/06/26 04:32:18;;;;;;;57.80;25.95;;;;;;;15.01;100.00;102105.13;4953173;28;20161;-69
2021/06/26 04:34:48;;;;;;;63.75;26.77;;;;;;;15.01;100.00;102107.81;4959381;28;20393;-69
2021/06/26 04:37:17;;;;;;;63.80;28.63;;;;;;;15.00;100.00;102103.34;4951783;28;20067;-70
2021/06/26 04:39:45;;;;;;;64.68;27.35;;;;;;;15.02;100.00;102098.84;4955115;28;20211;-71
2021/06/26 04:42:12;;;;;;;63.80;29.23;;;;;;;15.03;100.00;102105.97;4954823;28;20090;-69
2021/06/26 04:44:40;;;;;;;66.18;29.05;;;;;;;15.03;100.00;102101.44;4955702;28;20193;-70
2021/06/26 04:47:08;;;;;;;72.90;31.02;;;;;;;15.03;100.00;102101.44;4954234;28;20226;-69
2021/06/26 04:49:36;;;;;;;78.50;34.13;;;;;;;15.04;100.00;102110.41;4952952;28;20050;-69
2021/06/26 04:52:08;;;;;;;77.18;33.65;;;;;;;15.04;100.00;102094.28;4953573;28;20058;-69
2021/06/26 04:54:37;;;;;;;78.03;35.20;;;;;;;15.04;100.00;102105.03;4956222;28;20043;-69
2021/06/26 04:57:05;;;;;;;71.88;32.83;;;;;;;15.04;100.00;102100.53;4956975;28;20070;-70
2021/06/26 04:59:33;;;;;;;75.32;31.63;;;;;;;15.07;100.00;102103.13;4961216;28;20044;-70
2021/06/26 05:02:01;;;;;;;76.18;33.80;;;;;;;15.09;100.00;102103.09;4957666;28;20062;-71
2021/06/26 05:04:29;;;;;;;79.90;33.83;;;;;;;15.09;100.00;102100.41;4951150;28;20358;-70
2021/06/26 05:07:00;;;;;;;75.40;34.53;;;;;;;15.11;100.00;102096.72;4956738;28;20441;-72
2021/06/26 05:09:29;;;;;;;87.10;36.67;;;;;;;15.13;100.00;102100.25;4951475;28;20066;-71
2021/06/26 05:11:56;;;;;;;84.13;34.78;;;;;;;15.16;100.00;102106.47;4953520;28;20070;-73
2021/06/26 05:14:26;;;;;;;73.90;33.70;;;;;;;15.17;100.00;102100.16;4954902;28;21000;-70
2021/06/26 05:16:54;;;;;;;80.35;34.63;;;;;;;15.18;100.00;102094.72;4953223;28;20105;-70
2021/06/26 05:19:21;;;;;;;75.82;34.33;;;;;;;15.21;100.00;102097.31;4951374;28;20074;-70
2021/06/26 05:21:50;;;;;;;81.57;36.00;;;;;;;15.24;100.00;102097.22;4955107;28;20067;-70
2021/06/26 05:24:17;;;;;;;73.85;33.28;;;;;;;15.22;100.00;102093.72;4951052;28;20063;-70
2021/06/26 05:26:46;;;;;;;73.03;32.38;;;;;;;15.23;100.00;102100.84;4955441;28;20165;-71
2021/06/26 05:29:14;;;;;;;72.97;33.42;;;;;;;15.23;100.00;102103.53;4950807;28;20062;-70
2021/06/26 05:31:42;;;;;;;79.25;34.13;;;;;;;15.31;100.00;102103.31;4955206;28;20933;-70
2021/06/26 05:34:10;;;;;;;72.40;32.08;;;;;;;15.36;100.00;102103.13;4954025;28;20076;-71
2021/06/26 05:36:38;;;;;;;77.30;35.13;;;;;;;15.42;100.00;102100.25;4957725;28;20159;-71
2021/06/26 05:39:06;;;;;;;75.35;32.95;;;;;;;15.47;100.00;102100.97;4956301;28;20066;-72
2021/06/26 05:41:33;;;;;;;80.72;33.78;;;;;;;15.45;100.00;102106.41;4955148;28;20117;-70
2021/06/26 05:44:03;;;;;;;77.50;32.70;;;;;;;15.49;100.00;102088.34;4954274;28;20073;-70
2021/06/26 05:46:30;;;;;;;76.93;34.20;;;;;;;15.58;100.00;102093.44;4954466;28;20090;-71
2021/06/26 05:48:58;;;;;;;78.40;35.03;;;;;;;15.59;100.00;102099.69;4953226;28;20073;-72
2021/06/26 05:51:26;;;;;;;73.88;33.53;;;;;;;15.64;100.00;102108.50;4953320;28;20447;-71
2021/06/26 05:53:54;;;;;;;72.20;32.78;;;;;;;15.63;100.00;102104.94;4954488;28;20111;-70
2021/06/26 05:56:22;;;;;;;70.05;32.65;;;;;;;15.63;100.00;102107.63;4949690;28;20238;-71
2021/06/26 05:58:50;;;;;;;79.72;36.22;;;;;;;15.62;100.00;102096.91;4959199;28;20055;-70
2021/06/26 06:01:19;;;;;;;75.68;34.55;;;;;;;15.66;100.00;102106.63;4953199;28;20114;-70
2021/06/26 06:03:47;;;;;;;74.07;34.25;;;;;;;15.71;100.00;102093.91;4954482;28;20165;-70
2021/06/26 06:06:15;;;;;;;76.10;32.40;;;;;;;15.74;100.00;102096.50;4950247;28;20176;-70
2021/06/26 06:08:43;;;;;;;72.07;34.63;;;;;;;15.85;100.00;102091.69;4954154;28;20074;-70
2021/06/26 06:11:11;;;;;;;70.82;31.45;;;;;;;15.94;100.00;102095.00;4951181;28;20067;-69
2021/06/26 06:13:39;;;;;;;66.90;31.05;;;;;;;16.13;100.00;102095.22;4955915;28;20075;-70
2021/06/26 06:16:07;;;;;;;69.50;33.35;;;;;;;16.18;100.00;102099.50;4950543;28;20074;-70
2021/06/26 06:18:36;;;;;;;72.82;33.28;;;;;;;16.23;100.00;102108.28;4954402;28;20058;-70
2021/06/26 06:21:04;;;;;;;61.83;29.73;;;;;;;16.21;100.00;102114.69;4954249;28;20564;-70
2021/06/26 06:23:31;;;;;;;65.25;31.67;;;;;;;16.21;99.62;102118.25;4950605;28;20059;-70
2021/06/26 06:25:59;;;;;;;69.80;30.75;;;;;;;16.21;99.17;102120.06;4950711;28;20669;-71
2021/06/26 06:28:27;;;;;;;60.50;30.38;;;;;;;16.22;99.10;102121.81;4953635;28;20125;-69
2021/06/26 06:30:55;;;;;;;59.63;30.80;;;;;;;16.20;98.96;102116.47;4950151;28;21138;-70
2021/06/26 06:33:23;;;;;;;65.13;31.77;;;;;;;16.19;98.74;102114.72;4955802;28;20063;-70
2021/06/26 06:35:52;;;;;;;60.85;29.77;;;;;;;16.27;98.76;102121.66;4955476;28;20078;-69
2021/06/26 06:38:20;;;;;;;65.53;31.17;;;;;;;16.27;98.85;102119.81;4952931;28;20067;-71
2021/06/26 06:40:48;;;;;;;62.22;30.13;;;;;;;16.22;97.75;102114.59;4957182;28;20099;-70
2021/06/26 06:43:16;;;;;;;65.53;31.33;;;;;;;16.29;97.99;102114.38;4954327;28;20133;-70
2021/06/26 06:45:43;;;;;;;64.20;30.88;;;;;;;16.44;98.04;102114.69;4956232;28;20113;-69
2021/06/26 06:48:11;;;;;;;72.53;30.67;;;;;;;16.48;96.75;102119.97;4951465;28;20105;-70
2021/06/26 06:50:39;;;;;;;61.92;30.92;;;;;;;16.57;96.59;102117.84;4954442;28;20055;-70
2021/06/26 06:53:09;;;;;;;63.50;30.70;;;;;;;16.64;96.62;102121.19;4950178;28;20074;-70
2021/06/26 06:55:36;;;;;;;64.60;33.78;;;;;;;16.69;96.36;102112.94;4952447;28;20074;-70
2021/06/26 06:58:04;;;;;;;61.05;31.00;;;;;;;16.79;96.06;102109.81;4948748;28;20462;-71
2021/06/26 07:00:32;;;;;;;62.30;32.60;;;;;;;16.80;95.48;102114.28;4950298;28;20584;-68
2021/06/26 07:03:00;;;;;;;65.18;32.45;;;;;;;16.95;96.07;102120.91;4948183;28;21428;-69
2021/06/26 07:05:27;;;;;;;63.70;32.05;;;;;;;17.02;96.14;102116.16;4954067;28;20063;-70
2021/06/26 07:07:56;;;;;;;66.22;32.30;;;;;;;17.11;95.69;102113.13;4947095;28;20214;-69
2021/06/26 07:10:25;;;;;;;63.85;30.40;;;;;;;17.11;94.52;102112.22;4952579;28;20150;-68
2021/06/26 07:12:53;;;;;;;65.30;33.70;;;;;;;17.09;93.57;102116.81;4949590;28;20645;-69
2021/06/26 07:15:21;;;;;;;62.92;30.77;;;;;;;17.20;93.61;102114.59;4951918;28;20066;-68
2021/06/26 07:17:49;;;;;;;58.15;29.77;;;;;;;17.31;92.53;102114.16;4956304;28;20055;-69
2021/06/26 07:20:17;;;;;;;59.17;29.35;;;;;;;17.46;92.73;102116.22;4952819;28;20153;-69
2021/06/26 07:22:45;;;;;;;58.25;30.35;;;;;;;17.49;92.66;102116.09;4955934;28;20145;-68
2021/06/26 07:25:13;;;;;;;60.33;31.60;;;;;;;17.58;92.55;102116.66;4956173;28;20786;-69
2021/06/26 07:27:42;;;;;;;53.35;28.30;;;;;;;17.60;90.90;102109.38;4959210;28;20055;-70
2021/06/26 07:30:11;;;;;;;59.60;30.08;;;;;;;17.63;91.29;102111.97;4952234;28;20525;-68
2021/06/26 07:32:38;;;;;;;57.78;28.98;;;;;;;17.47;90.03;102115.28;4957158;28;20063;-68
2021/06/26 07:35:08;;;;;;;56.53;29.33;;;;;;;17.55;90.42;102118.56;4951328;28;20652;-69
2021/06/26 07:37:36;;;;;;;54.33;27.60;;;;;;;17.67;90.29;102116.28;4957353;28;20472;-67
2021/06/26 07:40:05;;;;;;;54.70;28.10;;;;;;;17.73;90.85;102121.44;4952470;28;20567;-70
2021/06/26 07:42:33;;;;;;;52.75;28.85;;;;;;;17.88;89.63;102109.16;4959715;28;20062;-69
2021/06/26 07:45:02;;;;;;;52.35;27.55;;;;;;;17.85;88.28;102112.81;4952588;28;20633;-68
2021/06/26 07:47:29;;;;;;;52.15;25.88;;;;;;;17.83;87.24;102105.72;4953027;28;20189;-69
2021/06/26 07:49:57;;;;;;;46.22;26.38;;;;;;;17.94;86.48;102108.84;4955518;28;20062;-72
2021/06/26 07:52:25;;;;;;;51.03;27.02;;;;;;;18.06;87.18;102108.31;4960272;28;20396;-70
2021/06/26 07:54:53;;;;;;;51.30;26.45;;;;;;;18.22;87.35;102107.69;4956990;28;20066;-69
2021/06/26 07:57:21;;;;;;;50.65;26.55;;;;;;;18.36;87.21;102098.97;4956380;28;20075;-70
2021/06/26 07:59:48;;;;;;;47.10;24.80;;;;;;;18.39;85.91;102099.69;4951789;28;20184;-72
2021/06/26 08:02:18;;;;;;;50.40;27.20;;;;;;;18.58;86.98;102099.72;4950992;28;20066;-69
2021/06/26 08:04:46;;;;;;;48.78;25.33;;;;;;;18.73;85.16;102108.97;4953567;28;20063;-69
2021/06/26 08:07:13;;;;;;;47.22;26.40;;;;;;;18.89;83.30;102103.75;4950533;28;20113;-68
2021/06/26 08:09:41;;;;;;;42.92;24.20;;;;;;;18.92;84.12;102106.31;4959103;28;20065;-69
2021/06/26 08:12:14;;;;;;;44.63;23.98;;;;;;;18.92;83.20;102103.59;4957781;28;20133;-70
2021/06/26 08:14:42;;;;;;;47.00;25.85;;;;;;;18.76;84.15;102108.81;4956633;28;20148;-70
2021/06/26 08:17:11;;;;;;;48.35;26.88;;;;;;;19.08;82.02;102098.31;4952384;28;20103;-71
2021/06/26 08:19:41;;;;;;;46.23;25.50;;;;;;;19.77;82.14;102094.09;4949519;28;20228;-70
2021/06/26 08:22:09;;;;;;;43.92;24.60;;;;;;;20.02;79.95;102098.22;4950388;28;20070;-71
2021/06/26 08:24:37;;;;;;;50.63;28.02;;;;;;;20.01;77.43;102097.34;4956811;28;20102;-71
2021/06/26 08:27:05;;;;;;;49.33;29.33;;;;;;;20.29;78.64;102088.63;4950266;28;20141;-72
2021/06/26 08:29:33;;;;;;;46.58;27.63;;;;;;;20.26;78.29;102086.09;4951243;28;20233;-71
2021/06/26 08:32:01;;;;;;;48.63;29.38;;;;;;;20.00;76.07;102086.59;4948220;28;20109;-71
2021/06/26 08:34:29;;;;;;;47.33;29.38;;;;;;;20.25;77.15;102089.75;4949383;28;20077;-70
2021/06/26 08:36:58;;;;;;;50.45;28.27;;;;;;;20.47;73.77;102094.03;4948178;28;20653;-71
2021/06/26 08:39:26;;;;;;;49.45;28.20;;;;;;;20.52;75.92;102092.81;4952220;28;20127;-71
2021/06/26 08:41:55;;;;;;;46.22;27.20;;;;;;;20.78;76.58;102095.97;4955043;28;20062;-71
2021/06/26 08:44:23;;;;;;;46.15;26.55;;;;;;;20.71;75.34;102095.44;4959762;28;21786;-72
2021/06/26 08:46:51;;;;;;;49.35;27.60;;;;;;;20.56;74.48;102093.53;4956341;28;20086;-72
2021/06/26 08:49:20;;;;;;;47.28;29.30;;;;;;;20.52;74.21;102086.53;4950394;28;20071;-70
2021/06/26 08:51:48;;;;;;;50.30;28.67;;;;;;;20.33;73.54;102092.94;4955097;28;20062;-70
2021/06/26 08:54:22;;;;;;;48.22;28.27;;;;;;;20.32;74.19;102091.19;4951696;28;20622;-71
2021/06/26 08:56:50;;;;;;;51.05;29.88;;;;;;;20.38;74.27;102099.94;4949312;28;20106;-70
2021/06/26 08:59:18;;;;;;;44.97;26.75;;;;;;;20.38;74.50;102100.84;4951705;28;20149;-71
2021/06/26 09:01:47;;;;;;;49.65;27.48;;;;;;;20.34;74.72;102099.22;4953525;28;20150;-74
2021/06/26 09:04:16;;;;;;;45.85;27.15;;;;;;;20.51;74.64;102096.47;4953332;28;20145;-74
2021/06/26 09:06:52;;;;;;;50.00;29.40;;;;;;;20.69;73.42;102105.50;4955109;28;20745;-74
2021/06/26 09:09:32;;;;;;;48.33;27.88;;;;;;;20.79;73.90;102110.41;4951587;28;20485;-74
2021/06/26 09:12:05;;;;;;;47.70;29.02;;;;;;;20.82;72.97;102108.41;4954679;28;20058;-74
2021/06/26 09:14:33;;;;;;;47.37;27.77;;;;;;;20.88;70.94;102105.34;4950767;28;20761;-71
2021/06/26 09:17:02;;;;;;;47.80;29.40;;;;;;;20.67;71.67;102106.53;4955256;28;20308;-72
2021/06/26 09:19:31;;;;;;;45.05;27.15;;;;;;;20.72;71.84;102109.84;4949815;28;20094;-70
2021/06/26 09:22:02;;;;;;;47.05;26.00;;;;;;;20.88;72.48;102107.19;4954774;28;20090;-73
2021/06/26 09:24:43;;;;;;;48.15;27.88;;;;;;;20.95;71.46;102103.16;4948625;28;20070;-72
2021/06/26 09:27:12;;;;;;;50.20;28.77;;;;;;;21.19;71.05;102100.03;4953823;28;20142;-73
2021/06/26 09:29:51;;;;;;;46.15;28.38;;;;;;;21.51;70.70;102097.34;4949139;28;20054;-74
2021/06/26 09:32:23;;;;;;;49.47;30.77;;;;;;;21.72;69.51;102101.47;4955209;28;20121;-73
2021/06/26 09:34:53;;;;;;;54.00;32.57;;;;;;;21.25;69.41;102103.28;4954113;28;20085;-70
2021/06/26 09:37:25;;;;;;;52.35;30.05;;;;;;;21.43;69.35;102108.59;4954397;28;20062;-73
2021/06/26 09:39:56;;;;;;;52.40;30.33;;;;;;;21.37;68.64;102115.28;4951371;28;20098;-72
2021/06/26 09:42:26;;;;;;;52.63;31.45;;;;;;;21.19;69.12;102110.88;4953291;28;20137;-69
2021/06/26 09:44:55;;;;;;;49.97;30.15;;;;;;;21.36;69.27;102116.22;4950354;28;20689;-71
2021/06/26 09:47:32;;;;;;;49.28;29.95;;;;;;;21.39;68.80;102113.34;4953785;28;20141;-70
2021/06/26 09:50:10;;;;;;;51.58;30.33;;;;;;;21.47;69.91;102115.66;4946498;28;20062;-70
2021/06/26 09:52:40;;;;;;;50.22;29.08;;;;;;;21.65;68.82;102105.53;4951844;28;20063;-70
2021/06/26 09:55:16;;;;;;;52.72;30.85;;;;;;;21.75;68.10;102109.47;4951492;28;20188;-70
2021/06/26 09:57:45;;;;;;;56.67;32.38;;;;;;;21.81;67.44;102097.34;4958140;28;20477;-70
2021/06/26 10:00:15;;;;;;;48.45;29.85;;;;;;;21.77;68.16;102106.66;4956049;28;20063;-70
2021/06/26 10:02:44;;;;;;;49.33;31.27;;;;;;;21.63;68.61;102108.34;4955387;28;20471;-69
2021/06/26 10:05:12;;;;;;;52.35;32.15;;;;;;;21.70;69.21;102099.84;4955221;28;20074;-70
2021/06/26 10:07:42;;;;;;;47.72;28.60;;;;;;;22.01;68.55;102090.72;4962488;28;20047;-70
2021/06/26 10:10:12;;;;;;;52.05;31.58;;;;;;;22.05;67.67;102096.84;4957759;28;20063;-70
2021/06/26 10:12:43;;;;;;;55.15;32.97;;;;;;;22.20;67.64;102102.22;4954674;28;20055;-70
2021/06/26 10:15:12;;;;;;;51.25;31.80;;;;;;;22.12;67.05;102096.38;4956678;28;20067;-70
2021/06/26 10:17:41;;;;;;;55.58;33.67;;;;;;;22.06;65.85;102102.19;4954029;28;20083;-70
2021/06/26 10:20:13;;;;;;;51.17;32.33;;;;;;;22.18;65.50;102106.00;4957223;28;20429;-70
2021/06/26 10:22:44;;;;;;;47.92;31.17;;;;;;;22.06;66.28;102096.75;4953478;28;20090;-73
2021/06/26 10:25:13;;;;;;;49.53;30.80;;;;;;;22.14;66.81;102096.28;4955452;28;20063;-74
2021/06/26 10:27:43;;;;;;;45.22;29.52;;;;;;;21.85;66.57;102100.78;4954607;28;20086;-74
2021/06/26 10:30:16;;;;;;;52.58;32.17;;;;;;;21.91;65.96;102095.81;4957543;28;20121;-73
2021/06/26 10:32:52;;;;;;;50.30;30.77;;;;;;;22.21;66.54;102094.94;4956743;28;20062;-73
2021/06/26 10:35:20;;;;;;;51.83;31.13;;;;;;;22.61;64.26;102100.66;4958898;28;20058;-74
2021/06/26 10:37:59;;;;;;;51.05;30.48;;;;;;;22.78;65.09;102099.56;4953579;28;20090;-73
2021/06/26 10:40:36;;;;;;;50.67;30.17;;;;;;;23.04;65.51;102094.31;4960055;28;20066;-74
2021/06/26 10:43:18;;;;;;;53.92;30.85;;;;;;;23.00;63.32;102096.31;4954653;28;20059;-73
2021/06/26 10:45:48;;;;;;;48.70;30.67;;;;;;;22.74;62.52;102096.16;4960090;28;20070;-75
2021/06/26 10:48:22;;;;;;;51.40;29.98;;;;;;;22.81;62.91;102096.63;4955545;28;20066;-74
2021/06/26 10:50:51;;;;;;;45.33;28.25;;;;;;;23.29;62.27;102082.69;4957525;28;20047;-74
2021/06/26 10:53:27;;;;;;;42.35;27.92;;;;;;;22.98;60.53;102092.84;4954478;28;20428;-73
2021/06/26 10:56:05;;;;;;;49.20;29.38;;;;;;;23.10;60.18;102091.19;4955506;28;20073;-74
2021/06/26 10:58:36;;;;;;;47.45;30.45;;;;;;;23.28;59.18;102086.41;4955661;28;20098;-74
2021/06/26 11:01:17;;;;;;;47.88;31.65;;;;;;;23.00;61.00;102093.59;4955840;28;20335;-75
2021/06/26 11:03:46;;;;;;;42.60;25.92;;;;;;;23.45;61.13;102090.72;4954318;28;20067;-74
2021/06/26 11:06:25;;;;;;;51.33;30.27;;;;;;;23.33;60.35;102095.13;4959033;28;20050;-73
2021/06/26 11:09:02;;;;;;;48.63;30.80;;;;;;;23.48;60.64;102087.78;4955047;28;21188;-74
2021/06/26 11:11:38;;;;;;;46.08;27.30;;;;;;;24.04;59.22;102085.78;4959764;28;20334;-75